Terminal Aerodrome Forecast
Issued by NWS Grand Forks, ND

Home | Current Version | Previous Version | Graphics & Text | Print | Product List | Glossary On
Versions: 1 2 3 4 5 6 7 8 9 10 11 12 13 14 15 16 17 18 19 20 21 22 23 24 25
000
FTUS43 KFGF 052339
TAFGFK
TAF
KGFK 052339Z 0600/0624 03009KT 4SM -SN OVC008
      TEMPO 0600/0602 P6SM OVC080
     FM060200 03011KT 1SM -SN OVC008
     FM060500 35012KT 3/4SM -SN OVC010
     FM060600 34012KT 3/4SM -SN OVC010
     FM061100 31014KT 1SM -SN OVC010
     FM061300 31017KT 1SM -SN BLSN OVC010
     FM061800 30026G36KT 1/2SM -SN BLSN OVC003
     FM062300 29027G37KT 2SM -SN BLSN OVC008=

USA.gov is the U.S. government's official web portal to all federal, state and local government web resources and services.